Time;durP1;ratioP1;P1;durP2;ratioP2;P2;SDS_P1;SDS_P2;PMS_P1;PMS_P2;Temp;Humidity;BMP_temperature;BMP_pressure;BME280_temperature;BME280_humidity;BME280_pressure;Samples;Min_cycle;Max_cycle;Signal;HPM_P1;HPM_P2
2022/07/14 00:01:01;;;;;;;0.40;0.40;;;;;;;;;;5116160;28;20193;-79
2022/07/14 00:03:31;;;;;;;0.50;0.50;;;;;;;;;;5115326;28;20234;-79
2022/07/14 00:06:01;;;;;;;0.30;0.30;;;;;;;;;;5115606;28;20245;-79
2022/07/14 00:08:29;;;;;;;0.40;0.40;;;;;;;;;;5100783;28;20246;-80
2022/07/14 00:10:57;;;;;;;0.40;0.40;;;;;;;;;;5102415;28;20196;-79
2022/07/14 00:13:26;;;;;;;0.37;0.37;;;;;;;;;;5115623;28;20196;-79
2022/07/14 00:15:54;;;;;;;0.30;0.30;;;;;;;;;;5115635;28;20196;-79
2022/07/14 00:18:23;;;;;;;0.40;0.40;;;;;;;;;;5133612;28;20206;-79
2022/07/14 00:20:51;;;;;;;0.40;0.40;;;;;;;;;;5115432;28;20232;-79
2022/07/14 00:23:24;;;;;;;1.33;1.33;;;;;;;;;;5122091;28;20192;-79
2022/07/14 00:25:52;;;;;;;0.40;0.40;;;;;;;;;;5109085;28;20220;-79
2022/07/14 00:28:21;;;;;;;0.40;0.40;;;;;;;;;;5097821;28;20204;-79
2022/07/14 00:30:51;;;;;;;10.43;1.43;;;;;;;;;;5118941;27;20278;-79
2022/07/14 00:33:20;;;;;;;0.33;0.33;;;;;;;;;;5118985;27;20193;-79
2022/07/14 00:35:48;;;;;;;0.40;0.40;;;;;;;;;;5137372;27;20220;-79
2022/07/14 00:38:16;;;;;;;0.60;0.60;;;;;;;;;;5118837;27;20188;-79
2022/07/14 00:40:46;;;;;;;0.80;0.80;;;;;;;;;;5137404;27;20243;-79
2022/07/14 00:43:15;;;;;;;0.40;0.40;;;;;;;;;;5118773;27;20240;-79
2022/07/14 00:45:43;;;;;;;0.43;0.43;;;;;;;;;;5118961;27;20236;-79
2022/07/14 00:48:12;;;;;;;0.40;0.40;;;;;;;;;;5137003;27;20201;-77
2022/07/14 00:50:42;;;;;;;0.40;0.40;;;;;;;;;;5111085;28;20238;-77
2022/07/14 00:53:11;;;;;;;2.43;0.53;;;;;;;;;;5112791;27;20208;-76
2022/07/14 00:55:41;;;;;;;0.40;0.40;;;;;;;;;;5105071;27;20196;-76
2022/07/14 00:58:11;;;;;;;0.40;0.40;;;;;;;;;;5105210;28;20189;-79
2022/07/14 01:00:39;;;;;;;0.30;0.30;;;;;;;;;;5112881;28;20194;-79
2022/07/14 01:03:07;;;;;;;0.40;0.40;;;;;;;;;;5097794;28;20196;-79
2022/07/14 01:05:36;;;;;;;0.40;0.40;;;;;;;;;;5130665;27;20224;-79
2022/07/14 01:08:05;;;;;;;0.40;0.40;;;;;;;;;;5109583;27;20214;-79
2022/07/14 01:10:33;;;;;;;0.30;0.30;;;;;;;;;;5136852;27;20199;-79
2022/07/14 01:13:02;;;;;;;0.30;0.30;;;;;;;;;;5108693;28;20196;-79
2022/07/14 01:15:32;;;;;;;0.40;0.40;;;;;;;;;;5132381;27;20196;-79
2022/07/14 01:18:03;;;;;;;0.30;0.30;;;;;;;;;;5118223;27;20195;-79
2022/07/14 01:20:31;;;;;;;0.40;0.40;;;;;;;;;;5134955;27;20239;-79
2022/07/14 01:23:02;;;;;;;0.30;0.30;;;;;;;;;;5105721;27;20259;-79
2022/07/14 01:25:30;;;;;;;0.30;0.30;;;;;;;;;;5121257;27;20270;-79
2022/07/14 01:27:59;;;;;;;0.40;0.40;;;;;;;;;;5097895;28;20209;-79
2022/07/14 01:30:28;;;;;;;0.50;0.50;;;;;;;;;;5097412;28;20213;-79
2022/07/14 01:32:56;;;;;;;0.30;0.30;;;;;;;;;;5135422;27;20264;-79
2022/07/14 01:35:24;;;;;;;0.40;0.40;;;;;;;;;;5118144;27;20226;-78
2022/07/14 01:37:53;;;;;;;0.40;0.40;;;;;;;;;;5117566;27;20249;-79
2022/07/14 01:40:23;;;;;;;0.40;0.40;;;;;;;;;;5110810;28;20192;-79
2022/07/14 01:42:51;;;;;;;0.40;0.40;;;;;;;;;;5097637;28;20204;-79
2022/07/14 01:45:19;;;;;;;0.40;0.40;;;;;;;;;;5103005;27;20210;-79
2022/07/14 01:47:48;;;;;;;0.30;0.30;;;;;;;;;;5123483;27;20220;-79
2022/07/14 01:50:16;;;;;;;0.70;0.70;;;;;;;;;;5115486;28;20196;-79
2022/07/14 01:52:44;;;;;;;0.50;0.50;;;;;;;;;;5097302;28;20196;-79
2022/07/14 01:55:13;;;;;;;0.40;0.40;;;;;;;;;;5129494;27;20193;-77
2022/07/14 01:57:42;;;;;;;0.93;0.93;;;;;;;;;;5124792;27;20191;-78
2022/07/14 02:00:11;;;;;;;0.40;0.40;;;;;;;;;;5135523;27;20203;-78
2022/07/14 02:02:40;;;;;;;0.40;0.40;;;;;;;;;;5135717;27;20203;-78
2022/07/14 02:05:11;;;;;;;0.40;0.40;;;;;;;;;;5102965;27;20286;-78
2022/07/14 02:07:40;;;;;;;0.47;0.47;;;;;;;;;;5109744;28;20215;-77
2022/07/14 02:12:59;;;;;;;0.40;0.40;;;;;;;;;;5114884;28;20243;-77
2022/07/14 02:15:28;;;;;;;0.93;0.93;;;;;;;;;;5111014;27;20198;-77
2022/07/14 02:17:56;;;;;;;0.50;0.50;;;;;;;;;;5105175;27;20256;-77
2022/07/14 02:20:25;;;;;;;0.40;0.40;;;;;;;;;;5134864;27;20260;-77
2022/07/14 02:22:54;;;;;;;0.50;0.50;;;;;;;;;;5116992;27;20244;-77
2022/07/14 02:25:22;;;;;;;0.40;0.40;;;;;;;;;;5103064;28;20218;-78
2022/07/14 02:27:50;;;;;;;0.47;0.47;;;;;;;;;;5120469;27;20267;-77
2022/07/14 02:30:21;;;;;;;0.50;0.50;;;;;;;;;;5116725;27;20203;-77
2022/07/14 02:32:49;;;;;;;0.50;0.50;;;;;;;;;;5111940;27;20223;-77
2022/07/14 02:35:18;;;;;;;0.40;0.40;;;;;;;;;;5116592;27;20227;-78
2022/07/14 02:37:47;;;;;;;0.40;0.40;;;;;;;;;;5103284;28;20192;-78
2022/07/14 02:40:15;;;;;;;0.30;0.30;;;;;;;;;;5134951;27;20198;-78
2022/07/14 02:42:43;;;;;;;0.50;0.50;;;;;;;;;;5116569;27;20207;-78
2022/07/14 02:45:12;;;;;;;0.50;0.50;;;;;;;;;;5114099;27;20210;-78
2022/07/14 02:47:42;;;;;;;0.40;0.40;;;;;;;;;;5131294;27;20246;-77
2022/07/14 02:50:11;;;;;;;0.33;0.33;;;;;;;;;;5115316;27;20195;-78
2022/07/14 02:52:39;;;;;;;0.40;0.40;;;;;;;;;;5125478;27;20212;-78
2022/07/14 02:55:08;;;;;;;0.40;0.40;;;;;;;;;;5112022;27;20253;-78
2022/07/14 02:57:36;;;;;;;0.40;0.40;;;;;;;;;;5133929;27;20240;-78
2022/07/14 03:00:06;;;;;;;0.50;0.50;;;;;;;;;;5113640;28;20211;-77
2022/07/14 03:02:34;;;;;;;0.50;0.50;;;;;;;;;;5095748;28;20196;-78
2022/07/14 03:05:04;;;;;;;0.50;0.50;;;;;;;;;;5102426;27;20203;-78
2022/07/14 03:07:33;;;;;;;1.03;1.03;;;;;;;;;;5116376;27;20226;-78
2022/07/14 03:10:02;;;;;;;0.40;0.40;;;;;;;;;;5111003;28;20207;-78
2022/07/14 03:12:30;;;;;;;0.50;0.50;;;;;;;;;;5125343;27;20215;-78
2022/07/14 03:14:59;;;;;;;3.97;1.90;;;;;;;;;;5115812;28;20229;-78
2022/07/14 03:17:27;;;;;;;0.50;0.50;;;;;;;;;;5115853;28;20194;-78
2022/07/14 03:19:55;;;;;;;0.40;0.40;;;;;;;;;;5114254;27;20273;-78
2022/07/14 03:22:25;;;;;;;0.40;0.40;;;;;;;;;;5116076;28;20198;-78
2022/07/14 03:24:54;;;;;;;0.40;0.40;;;;;;;;;;5101408;28;20257;-78
2022/07/14 03:27:22;;;;;;;0.60;0.60;;;;;;;;;;5116284;28;20199;-78
2022/07/14 03:29:50;;;;;;;0.40;0.40;;;;;;;;;;5134289;28;20200;-78
2022/07/14 03:32:19;;;;;;;0.40;0.40;;;;;;;;;;5115822;28;20211;-78
2022/07/14 03:34:47;;;;;;;0.40;0.40;;;;;;;;;;5103208;28;20226;-78
2022/07/14 03:37:16;;;;;;;0.40;0.40;;;;;;;;;;5132779;28;20187;-78
2022/07/14 03:39:46;;;;;;;0.40;0.40;;;;;;;;;;5115827;28;20223;-78
2022/07/14 03:42:15;;;;;;;0.40;0.40;;;;;;;;;;5101489;28;20259;-78
2022/07/14 03:44:45;;;;;;;0.43;0.43;;;;;;;;;;5116216;28;20290;-78
2022/07/14 03:47:13;;;;;;;0.40;0.40;;;;;;;;;;5115617;28;20221;-78
2022/07/14 03:49:41;;;;;;;0.40;0.40;;;;;;;;;;5115836;28;20223;-78
2022/07/14 03:52:13;;;;;;;0.50;0.50;;;;;;;;;;5132444;28;20207;-77
2022/07/14 03:54:45;;;;;;;0.40;0.40;;;;;;;;;;5113234;28;20211;-78
2022/07/14 03:57:14;;;;;;;0.40;0.40;;;;;;;;;;5113137;28;20204;-78
2022/07/14 03:59:42;;;;;;;0.50;0.50;;;;;;;;;;5101748;28;20184;-78
2022/07/14 04:02:11;;;;;;;0.40;0.40;;;;;;;;;;5116682;27;20202;-78
2022/07/14 04:04:39;;;;;;;0.40;0.40;;;;;;;;;;5118215;27;20200;-78
2022/07/14 04:07:08;;;;;;;0.80;0.80;;;;;;;;;;5099365;28;20224;-78
2022/07/14 04:09:37;;;;;;;0.50;0.50;;;;;;;;;;5131887;27;20251;-78
2022/07/14 04:12:07;;;;;;;0.90;0.90;;;;;;;;;;5098860;28;20199;-78
2022/07/14 04:14:35;;;;;;;0.50;0.50;;;;;;;;;;5115795;27;20224;-78
2022/07/14 04:17:04;;;;;;;0.40;0.40;;;;;;;;;;5128270;27;20219;-78
2022/07/14 04:19:33;;;;;;;0.40;0.40;;;;;;;;;;5119405;27;20236;-78
2022/07/14 04:22:01;;;;;;;0.60;0.60;;;;;;;;;;5137516;27;20248;-78
2022/07/14 04:24:50;;;;;;;0.97;0.97;;;;;;;;;;5137315;27;20223;-78
2022/07/14 04:27:19;;;;;;;0.40;0.40;;;;;;;;;;5109452;28;20252;-78
2022/07/14 04:29:48;;;;;;;0.40;0.40;;;;;;;;;;5100900;27;20223;-78
2022/07/14 04:32:16;;;;;;;0.40;0.40;;;;;;;;;;5137331;27;20207;-78
2022/07/14 04:34:45;;;;;;;0.60;0.60;;;;;;;;;;5104486;28;20224;-78
2022/07/14 04:37:14;;;;;;;0.80;0.80;;;;;;;;;;5118918;27;20191;-78
2022/07/14 04:39:42;;;;;;;0.60;0.60;;;;;;;;;;5105526;28;20203;-78
2022/07/14 04:42:10;;;;;;;0.40;0.40;;;;;;;;;;5130852;27;20269;-78
2022/07/14 04:44:41;;;;;;;2.73;1.23;;;;;;;;;;5098700;28;20196;-78
2022/07/14 04:47:09;;;;;;;0.40;0.40;;;;;;;;;;5116290;28;20207;-78
2022/07/14 04:52:24;;;;;;;0.40;0.40;;;;;;;;;;5104444;27;20204;-78
2022/07/14 04:54:52;;;;;;;0.47;0.47;;;;;;;;;;5123944;27;20247;-78
2022/07/14 04:57:21;;;;;;;0.40;0.40;;;;;;;;;;5130826;27;20256;-78
2022/07/14 04:59:51;;;;;;;0.50;0.50;;;;;;;;;;5123728;27;20184;-78
2022/07/14 05:02:19;;;;;;;0.40;0.40;;;;;;;;;;5118542;27;20206;-78
2022/07/14 05:04:48;;;;;;;0.40;0.40;;;;;;;;;;5112167;28;20193;-78
2022/07/14 05:07:17;;;;;;;0.40;0.40;;;;;;;;;;5111033;27;20199;-78
2022/07/14 05:09:45;;;;;;;0.63;0.63;;;;;;;;;;5136533;27;20280;-78
2022/07/14 05:12:16;;;;;;;0.40;0.40;;;;;;;;;;5136492;27;20192;-78
2022/07/14 05:14:44;;;;;;;0.60;0.60;;;;;;;;;;5117701;27;20199;-78
2022/07/14 05:17:14;;;;;;;0.40;0.40;;;;;;;;;;5118381;27;20204;-78
2022/07/14 05:19:46;;;;;;;0.40;0.40;;;;;;;;;;5136244;27;20224;-78
2022/07/14 05:22:15;;;;;;;0.40;0.40;;;;;;;;;;5118096;27;20193;-78
2022/07/14 05:24:43;;;;;;;0.43;0.43;;;;;;;;;;5119364;27;20210;-78
2022/07/14 05:27:11;;;;;;;0.40;0.40;;;;;;;;;;5106640;27;20253;-78
2022/07/14 05:29:40;;;;;;;0.87;0.87;;;;;;;;;;5117323;27;20243;-78
2022/07/14 05:32:09;;;;;;;0.30;0.30;;;;;;;;;;5104966;27;20204;-78
2022/07/14 05:34:43;;;;;;;0.40;0.40;;;;;;;;;;5135697;27;20315;-78
2022/07/14 05:37:11;;;;;;;0.40;0.40;;;;;;;;;;5104277;27;20290;-78
2022/07/14 05:39:41;;;;;;;0.27;0.27;;;;;;;;;;5122427;27;20205;-78
2022/07/14 05:42:10;;;;;;;1.00;1.00;;;;;;;;;;5117145;27;20207;-77
2022/07/14 05:44:38;;;;;;;0.30;0.30;;;;;;;;;;5123057;27;20208;-78
2022/07/14 05:47:07;;;;;;;0.37;0.37;;;;;;;;;;5101437;27;20208;-78
2022/07/14 05:49:35;;;;;;;0.30;0.30;;;;;;;;;;5135576;27;20272;-78
2022/07/14 05:52:05;;;;;;;0.30;0.30;;;;;;;;;;5114123;28;20196;-78
2022/07/14 05:54:34;;;;;;;3.07;2.77;;;;;;;;;;5106783;27;20211;-78
2022/07/14 05:57:03;;;;;;;0.30;0.30;;;;;;;;;;5118151;27;20207;-78
2022/07/14 05:59:31;;;;;;;0.30;0.30;;;;;;;;;;5131440;27;20597;-79
2022/07/14 06:02:14;;;;;;;0.53;0.53;;;;;;;;;;5112247;27;20203;-79
2022/07/14 06:04:42;;;;;;;0.40;0.40;;;;;;;;;;5099331;28;20200;-79
2022/07/14 06:07:12;;;;;;;0.40;0.40;;;;;;;;;;5128900;27;20260;-78
2022/07/14 06:09:41;;;;;;;0.60;0.60;;;;;;;;;;5118419;27;20212;-79
2022/07/14 06:12:10;;;;;;;0.30;0.30;;;;;;;;;;5127541;27;20195;-78
2022/07/14 06:14:40;;;;;;;0.30;0.30;;;;;;;;;;5115080;28;20207;-79
2022/07/14 06:17:09;;;;;;;0.83;0.83;;;;;;;;;;5125194;27;20202;-79
2022/07/14 06:19:38;;;;;;;0.50;0.50;;;;;;;;;;5118164;27;20232;-78
2022/07/14 06:22:06;;;;;;;0.47;0.47;;;;;;;;;;5109722;28;20201;-78
2022/07/14 06:24:38;;;;;;;0.30;0.30;;;;;;;;;;5111725;28;20199;-78
2022/07/14 06:27:14;;;;;;;0.60;0.60;;;;;;;;;;5124016;27;20209;-79
2022/07/14 06:29:42;;;;;;;0.40;0.40;;;;;;;;;;5102949;27;20218;-80
2022/07/14 06:32:10;;;;;;;3.50;0.70;;;;;;;;;;5121274;27;20196;-79
2022/07/14 06:34:39;;;;;;;0.57;0.57;;;;;;;;;;5102700;28;20225;-78
2022/07/14 06:37:07;;;;;;;0.50;0.50;;;;;;;;;;5121323;27;20232;-78
2022/07/14 06:39:37;;;;;;;0.40;0.40;;;;;;;;;;5104147;28;20199;-78
2022/07/14 06:42:07;;;;;;;0.40;0.40;;;;;;;;;;5096391;28;20210;-78
2022/07/14 06:44:35;;;;;;;0.67;0.67;;;;;;;;;;5096703;28;20234;-78
2022/07/14 06:47:04;;;;;;;0.33;0.33;;;;;;;;;;5114417;28;20211;-78
2022/07/14 06:49:32;;;;;;;3.23;1.17;;;;;;;;;;5106941;27;20212;-78
2022/07/14 06:52:01;;;;;;;0.30;0.30;;;;;;;;;;5131985;27;20201;-78
2022/07/14 06:54:29;;;;;;;1.23;0.57;;;;;;;;;;5104981;27;20203;-78
2022/07/14 06:56:59;;;;;;;1.70;0.60;;;;;;;;;;5135432;27;20196;-78
2022/07/14 06:59:27;;;;;;;0.40;0.40;;;;;;;;;;5115959;28;20199;-78
2022/07/14 07:01:56;;;;;;;0.50;0.50;;;;;;;;;;5107442;27;20217;-78
2022/07/14 07:04:25;;;;;;;0.77;0.77;;;;;;;;;;5116632;27;20275;-78
2022/07/14 07:06:55;;;;;;;2.53;0.77;;;;;;;;;;5106609;28;20267;-79
2022/07/14 07:09:24;;;;;;;0.43;0.43;;;;;;;;;;5114645;27;20256;-78
2022/07/14 07:11:52;;;;;;;0.40;0.40;;;;;;;;;;5095970;28;20263;-78
2022/07/14 07:14:22;;;;;;;0.30;0.30;;;;;;;;;;5115110;28;20191;-78
2022/07/14 07:16:51;;;;;;;0.40;0.40;;;;;;;;;;5117128;28;20204;-78
2022/07/14 07:19:20;;;;;;;0.73;0.60;;;;;;;;;;5099509;28;20210;-78
2022/07/14 07:21:49;;;;;;;2.97;0.60;;;;;;;;;;5092523;28;20239;-78
2022/07/14 07:24:17;;;;;;;0.50;0.50;;;;;;;;;;5093837;28;20200;-79
2022/07/14 07:26:46;;;;;;;0.37;0.37;;;;;;;;;;5099424;28;20206;-78
2022/07/14 07:29:14;;;;;;;0.70;0.70;;;;;;;;;;5101853;28;20207;-79
2022/07/14 07:31:44;;;;;;;4.30;1.20;;;;;;;;;;5093261;28;20286;-78
2022/07/14 07:34:13;;;;;;;0.77;0.77;;;;;;;;;;5103557;28;20234;-78
2022/07/14 07:36:41;;;;;;;2.37;0.97;;;;;;;;;;5101539;28;20236;-79
2022/07/14 07:39:30;;;;;;;0.50;0.50;;;;;;;;;;5118909;28;20261;-78
2022/07/14 07:42:01;;;;;;;0.33;0.33;;;;;;;;;;5103156;28;20203;-78
2022/07/14 07:44:30;;;;;;;0.53;0.53;;;;;;;;;;5107547;28;20207;-78
2022/07/14 07:47:00;;;;;;;0.50;0.50;;;;;;;;;;5113078;28;20201;-78
2022/07/14 07:49:29;;;;;;;0.40;0.40;;;;;;;;;;5107608;28;20208;-79
2022/07/14 07:51:58;;;;;;;2.00;1.47;;;;;;;;;;5116400;28;20202;-78
2022/07/14 07:54:27;;;;;;;0.37;0.37;;;;;;;;;;5109544;28;20198;-78
2022/07/14 07:57:16;;;;;;;0.40;0.40;;;;;;;;;;5100225;28;20201;-79
2022/07/14 07:59:44;;;;;;;0.38;0.38;;;;;;;;;;5110812;27;20455;-79
2022/07/14 08:02:14;;;;;;;0.30;0.30;;;;;;;;;;5105657;28;20199;-79
2022/07/14 08:04:43;;;;;;;3.67;1.87;;;;;;;;;;5107957;28;20199;-79
2022/07/14 08:07:12;;;;;;;0.30;0.30;;;;;;;;;;5111444;28;20218;-79
2022/07/14 08:09:40;;;;;;;0.40;0.40;;;;;;;;;;5105637;28;20203;-79
2022/07/14 08:12:09;;;;;;;1.83;0.60;;;;;;;;;;5111844;27;20203;-78
2022/07/14 08:14:51;;;;;;;1.07;0.60;;;;;;;;;;5101941;28;20204;-78
2022/07/14 08:17:22;;;;;;;2.17;0.40;;;;;;;;;;5104297;28;20203;-78
2022/07/14 08:19:51;;;;;;;0.40;0.40;;;;;;;;;;5114415;28;20250;-78
2022/07/14 08:22:24;;;;;;;0.40;0.40;;;;;;;;;;5111145;28;20200;-79
2022/07/14 08:24:53;;;;;;;0.40;0.40;;;;;;;;;;5103867;28;20332;-78
2022/07/14 08:27:30;;;;;;;0.43;0.43;;;;;;;;;;5108523;28;20200;-79
2022/07/14 08:29:59;;;;;;;0.80;0.80;;;;;;;;;;5110224;28;20244;-79
2022/07/14 08:32:36;;;;;;;0.30;0.30;;;;;;;;;;5104975;28;20199;-78
2022/07/14 08:35:06;;;;;;;2.80;1.00;;;;;;;;;;5106826;28;20224;-79
2022/07/14 08:37:34;;;;;;;0.50;0.50;;;;;;;;;;5110129;28;20200;-79
2022/07/14 08:40:05;;;;;;;0.80;0.80;;;;;;;;;;5114293;28;20200;-79
2022/07/14 08:42:34;;;;;;;0.23;0.23;;;;;;;;;;5110739;28;20226;-79
2022/07/14 08:45:07;;;;;;;0.70;0.70;;;;;;;;;;5103236;28;20196;-79
2022/07/14 08:47:37;;;;;;;0.73;0.73;;;;;;;;;;5109604;28;20211;-79
2022/07/14 08:50:07;;;;;;;0.30;0.30;;;;;;;;;;5113436;28;20232;-79
2022/07/14 08:52:36;;;;;;;0.30;0.30;;;;;;;;;;5109950;28;20204;-79
2022/07/14 08:55:10;;;;;;;0.80;0.80;;;;;;;;;;5116405;28;20297;-79
2022/07/14 08:57:40;;;;;;;1.13;0.90;;;;;;;;;;5111676;28;20259;-79
2022/07/14 09:00:11;;;;;;;0.20;0.20;;;;;;;;;;5127399;27;20209;-80
2022/07/14 09:02:42;;;;;;;0.40;0.40;;;;;;;;;;5106581;28;20206;-79
2022/07/14 09:05:30;;;;;;;0.60;0.60;;;;;;;;;;5109122;27;20215;-79
2022/07/14 09:08:02;;;;;;;2.53;0.40;;;;;;;;;;5108761;28;20197;-79
2022/07/14 09:10:30;;;;;;;2.33;1.03;;;;;;;;;;5110476;28;20245;-80
2022/07/14 09:13:24;;;;;;;0.40;0.40;;;;;;;;;;5111727;28;20205;-79
2022/07/14 09:16:13;;;;;;;0.93;0.43;;;;;;;;;;5113476;28;20198;-79
2022/07/14 09:18:43;;;;;;;0.30;0.30;;;;;;;;;;5114556;28;20230;-79
2022/07/14 09:21:20;;;;;;;0.63;0.60;;;;;;;;;;5108754;28;20238;-79
2022/07/14 09:23:49;;;;;;;0.60;0.60;;;;;;;;;;5110958;28;20198;-79
2022/07/14 09:26:17;;;;;;;0.90;0.90;;;;;;;;;;5107035;28;20214;-78
2022/07/14 09:28:50;;;;;;;0.40;0.40;;;;;;;;;;5106757;28;20202;-78
2022/07/14 09:31:21;;;;;;;0.57;0.57;;;;;;;;;;5106837;28;20220;-79
2022/07/14 09:33:52;;;;;;;1.83;1.03;;;;;;;;;;5110842;28;20252;-78
2022/07/14 09:36:21;;;;;;;3.10;0.40;;;;;;;;;;5107639;28;20240;-78
2022/07/14 09:38:51;;;;;;;2.93;0.60;;;;;;;;;;5110541;28;20193;-79
2022/07/14 09:41:20;;;;;;;1.80;0.80;;;;;;;;;;5112111;28;20225;-79
2022/07/14 09:44:04;;;;;;;0.33;0.33;;;;;;;;;;5105549;28;20207;-78
2022/07/14 09:46:43;;;;;;;0.50;0.50;;;;;;;;;;5103165;28;20269;-79
2022/07/14 09:49:14;;;;;;;1.47;0.70;;;;;;;;;;5107988;28;20198;-79
2022/07/14 09:51:53;;;;;;;1.17;1.17;;;;;;;;;;5105165;28;20236;-78
2022/07/14 09:54:40;;;;;;;0.87;0.80;;;;;;;;;;5089086;28;20194;-79
2022/07/14 09:57:09;;;;;;;0.40;0.40;;;;;;;;;;5108768;28;20212;-79
2022/07/14 09:59:44;;;;;;;0.53;0.53;;;;;;;;;;5107809;28;20231;-79
2022/07/14 10:02:17;;;;;;;3.00;0.70;;;;;;;;;;5106265;28;20196;-79
2022/07/14 10:04:48;;;;;;;0.40;0.40;;;;;;;;;;5111928;28;20233;-79
2022/07/14 10:07:17;;;;;;;0.30;0.30;;;;;;;;;;5109607;28;20211;-79
2022/07/14 10:09:50;;;;;;;1.23;0.40;;;;;;;;;;5111059;28;20277;-79
2022/07/14 10:12:19;;;;;;;0.70;0.70;;;;;;;;;;5107588;28;20341;-79
2022/07/14 10:14:48;;;;;;;0.90;0.90;;;;;;;;;;5098380;28;20197;-78
2022/07/14 10:17:17;;;;;;;0.70;0.70;;;;;;;;;;5107052;28;20211;-79
2022/07/14 10:19:46;;;;;;;3.80;0.83;;;;;;;;;;5107422;27;20272;-79
2022/07/14 10:22:17;;;;;;;0.67;0.67;;;;;;;;;;5126237;27;20195;-78
2022/07/14 10:24:46;;;;;;;0.50;0.50;;;;;;;;;;5127767;27;20206;-78
2022/07/14 10:27:15;;;;;;;0.60;0.60;;;;;;;;;;5110340;27;20204;-78
2022/07/14 10:29:43;;;;;;;0.60;0.60;;;;;;;;;;5106533;27;20196;-78
2022/07/14 10:32:22;;;;;;;0.50;0.50;;;;;;;;;;5110497;27;20217;-78
2022/07/14 10:34:57;;;;;;;0.93;0.70;;;;;;;;;;5127642;27;20221;-79
2022/07/14 10:37:31;;;;;;;0.40;0.40;;;;;;;;;;5124799;27;20300;-78
2022/07/14 10:40:06;;;;;;;0.70;0.70;;;;;;;;;;5114019;27;20207;-79
2022/07/14 10:42:40;;;;;;;3.40;1.10;;;;;;;;;;5110683;27;20231;-78
2022/07/14 10:45:09;;;;;;;1.57;1.47;;;;;;;;;;5102016;27;20203;-79
2022/07/14 10:47:45;;;;;;;1.00;1.00;;;;;;;;;;5114144;27;20270;-79
2022/07/14 10:50:14;;;;;;;0.50;0.50;;;;;;;;;;5112061;27;20208;-79
2022/07/14 10:52:51;;;;;;;0.97;0.90;;;;;;;;;;5107934;27;20235;-79
2022/07/14 10:55:21;;;;;;;0.77;0.57;;;;;;;;;;5126117;27;20197;-80
2022/07/14 10:58:08;;;;;;;1.60;0.50;;;;;;;;;;5111276;27;20202;-79
2022/07/14 11:00:56;;;;;;;0.40;0.40;;;;;;;;;;5125943;27;20281;-80
2022/07/14 11:03:26;;;;;;;0.40;0.40;;;;;;;;;;5128064;27;20201;-79
2022/07/14 11:06:14;;;;;;;0.47;0.47;;;;;;;;;;5107973;27;20197;-79
2022/07/14 11:09:03;;;;;;;0.63;0.63;;;;;;;;;;5127218;27;20243;-78
2022/07/14 11:11:33;;;;;;;1.30;0.57;;;;;;;;;;5102685;27;20208;-79
2022/07/14 11:14:07;;;;;;;1.87;0.77;;;;;;;;;;5104038;28;20211;-79
2022/07/14 11:16:56;;;;;;;1.10;0.83;;;;;;;;;;5111169;27;20308;-79
2022/07/14 11:19:26;;;;;;;0.50;0.50;;;;;;;;;;5128633;27;20225;-80
2022/07/14 11:22:12;;;;;;;1.60;0.63;;;;;;;;;;5092666;28;20207;-79
2022/07/14 11:24:47;;;;;;;0.40;0.40;;;;;;;;;;5086723;28;20231;-80
2022/07/14 11:27:32;;;;;;;0.40;0.40;;;;;;;;;;5083407;28;20205;-79
2022/07/14 11:30:16;;;;;;;0.90;0.57;;;;;;;;;;5108275;28;20204;-79
2022/07/14 11:32:45;;;;;;;7.00;0.87;;;;;;;;;;5112531;28;20228;-80
2022/07/14 11:38:03;;;;;;;0.30;0.30;;;;;;;;;;5089139;28;20208;-79
2022/07/14 11:40:41;;;;;;;0.37;0.33;;;;;;;;;;5086349;28;20201;-79
2022/07/14 11:46:20;;;;;;;0.67;0.67;;;;;;;;;;5140060;27;20304;-78
2022/07/14 11:48:50;;;;;;;0.77;0.60;;;;;;;;;;5106523;28;20216;-78
2022/07/14 11:51:21;;;;;;;0.30;0.30;;;;;;;;;;5105383;28;20209;-78
2022/07/14 11:53:54;;;;;;;0.67;0.67;;;;;;;;;;5125258;27;20200;-78
2022/07/14 11:56:23;;;;;;;0.43;0.43;;;;;;;;;;5129459;27;20201;-79
2022/07/14 11:58:57;;;;;;;0.50;0.50;;;;;;;;;;5129538;27;20201;-79
2022/07/14 12:01:31;;;;;;;0.67;0.50;;;;;;;;;;5108864;28;20208;-79
2022/07/14 12:04:06;;;;;;;0.60;0.53;;;;;;;;;;5129393;27;20217;-79
2022/07/14 12:06:34;;;;;;;0.33;0.33;;;;;;;;;;5103447;27;20193;-79
2022/07/14 12:09:03;;;;;;;0.30;0.30;;;;;;;;;;5113934;27;20193;-80
2022/07/14 12:11:52;;;;;;;2.10;1.03;;;;;;;;;;5109611;28;20221;-79
2022/07/14 12:14:21;;;;;;;0.70;0.70;;;;;;;;;;5111272;27;20195;-80
2022/07/14 12:16:52;;;;;;;0.47;0.47;;;;;;;;;;5128290;27;20198;-81
2022/07/14 12:19:27;;;;;;;0.30;0.30;;;;;;;;;;5101898;28;20201;-80
2022/07/14 12:21:58;;;;;;;0.30;0.30;;;;;;;;;;5105162;28;20284;-80
2022/07/14 12:24:27;;;;;;;0.30;0.30;;;;;;;;;;5104102;27;20223;-81
2022/07/14 12:26:57;;;;;;;0.50;0.50;;;;;;;;;;5098921;28;20203;-79
2022/07/14 12:29:26;;;;;;;4.70;0.73;;;;;;;;;;5099642;28;20217;-80
2022/07/14 12:31:56;;;;;;;0.30;0.30;;;;;;;;;;5103747;28;20223;-81
2022/07/14 12:34:25;;;;;;;0.40;0.40;;;;;;;;;;5104499;28;20234;-80
2022/07/14 12:36:56;;;;;;;0.30;0.30;;;;;;;;;;5085364;28;20253;-81
2022/07/14 12:39:25;;;;;;;0.40;0.40;;;;;;;;;;5085217;28;20200;-81
2022/07/14 12:41:57;;;;;;;0.40;0.40;;;;;;;;;;5104528;28;20207;-81
2022/07/14 12:44:26;;;;;;;0.50;0.50;;;;;;;;;;5084730;28;20290;-80
2022/07/14 12:47:08;;;;;;;0.50;0.50;;;;;;;;;;5084179;28;20204;-81
2022/07/14 12:49:49;;;;;;;4.03;0.77;;;;;;;;;;5102068;28;20210;-81
2022/07/14 12:52:21;;;;;;;2.30;1.00;;;;;;;;;;5083540;28;20214;-81
2022/07/14 12:54:49;;;;;;;0.87;0.60;;;;;;;;;;5085114;28;20282;-81
2022/07/14 12:57:49;;;;;;;0.67;0.60;;;;;;;;;;5089774;28;20205;-82
2022/07/14 13:00:18;;;;;;;0.30;0.30;;;;;;;;;;5068898;28;20235;-82
2022/07/14 13:02:48;;;;;;;0.50;0.50;;;;;;;;;;5069899;28;20215;-81
2022/07/14 13:05:16;;;;;;;0.40;0.40;;;;;;;;;;5089977;28;20235;-80
2022/07/14 13:07:45;;;;;;;0.50;0.50;;;;;;;;;;5071041;28;20204;-80
2022/07/14 13:10:14;;;;;;;0.40;0.40;;;;;;;;;;5079813;28;20208;-81
2022/07/14 13:12:44;;;;;;;0.67;0.60;;;;;;;;;;5076645;28;20194;-81
2022/07/14 13:15:14;;;;;;;0.90;0.90;;;;;;;;;;5093266;28;20211;-81
2022/07/14 13:17:55;;;;;;;22.83;1.30;;;;;;;;;;5085891;28;20200;-81
2022/07/14 13:20:43;;;;;;;0.30;0.30;;;;;;;;;;5081577;28;20224;-81
2022/07/14 13:23:20;;;;;;;0.60;0.60;;;;;;;;;;5068112;28;20286;-83
2022/07/14 13:25:49;;;;;;;0.40;0.40;;;;;;;;;;5075136;28;20222;-81
2022/07/14 13:28:28;;;;;;;0.30;0.30;;;;;;;;;;5082189;28;20221;-80
2022/07/14 13:30:57;;;;;;;0.57;0.57;;;;;;;;;;5080083;28;20227;-81
2022/07/14 13:33:27;;;;;;;4.00;1.30;;;;;;;;;;5073428;28;20273;-81
2022/07/14 13:35:58;;;;;;;0.60;0.60;;;;;;;;;;5066541;28;20246;-80
2022/07/14 13:38:26;;;;;;;0.53;0.53;;;;;;;;;;5070770;28;20237;-84
2022/07/14 13:40:56;;;;;;;0.30;0.30;;;;;;;;;;5069577;28;20206;-82
2022/07/14 13:43:25;;;;;;;0.40;0.40;;;;;;;;;;5086501;28;20339;-82
2022/07/14 13:45:53;;;;;;;0.30;0.30;;;;;;;;;;5073803;28;20231;-82
2022/07/14 13:48:22;;;;;;;0.33;0.33;;;;;;;;;;5096231;28;20231;-83
2022/07/14 13:53:38;;;;;;;0.60;0.60;;;;;;;;;;5069246;28;20224;-81
2022/07/14 13:56:07;;;;;;;1.07;0.73;;;;;;;;;;5085439;28;20208;-83
2022/07/14 13:58:36;;;;;;;0.77;0.63;;;;;;;;;;5068222;28;20197;-82
2022/07/14 14:01:06;;;;;;;0.43;0.43;;;;;;;;;;5070626;28;20258;-81
2022/07/14 14:03:34;;;;;;;2.30;0.60;;;;;;;;;;5088191;28;20440;-82
2022/07/14 14:06:24;;;;;;;1.90;0.80;;;;;;;;;;5067169;28;20217;-82
2022/07/14 14:08:53;;;;;;;1.03;0.90;;;;;;;;;;5063948;28;20212;-83
2022/07/14 14:11:21;;;;;;;1.03;0.80;;;;;;;;;;5071382;28;20198;-82
2022/07/14 14:13:50;;;;;;;0.90;0.90;;;;;;;;;;5066882;28;20265;-83
2022/07/14 14:16:19;;;;;;;1.50;1.07;;;;;;;;;;5081073;28;20229;-83
2022/07/14 14:18:47;;;;;;;1.47;0.90;;;;;;;;;;5086929;28;20206;-83
2022/07/14 14:21:16;;;;;;;0.87;0.87;;;;;;;;;;5070003;28;20295;-81
2022/07/14 14:23:49;;;;;;;1.43;1.13;;;;;;;;;;5067965;28;20205;-82
2022/07/14 14:26:18;;;;;;;0.70;0.70;;;;;;;;;;5083430;28;20226;-83
2022/07/14 14:28:47;;;;;;;3.17;0.60;;;;;;;;;;5084678;28;20217;-83
2022/07/14 14:31:15;;;;;;;1.27;1.17;;;;;;;;;;5066566;28;20205;-83
2022/07/14 14:33:46;;;;;;;0.77;0.70;;;;;;;;;;5069099;28;20338;-84
2022/07/14 14:36:17;;;;;;;0.30;0.30;;;;;;;;;;5084959;28;20207;-83
2022/07/14 14:38:47;;;;;;;2.83;1.30;;;;;;;;;;5070099;28;20204;-84
2022/07/14 14:41:16;;;;;;;1.43;1.07;;;;;;;;;;5064888;28;20196;-82
2022/07/14 14:43:44;;;;;;;2.50;0.83;;;;;;;;;;5083698;28;20215;-83
2022/07/14 14:46:13;;;;;;;0.87;0.60;;;;;;;;;;5068889;28;20292;-82
2022/07/14 14:48:45;;;;;;;0.80;0.80;;;;;;;;;;5087363;28;20202;-82
2022/07/14 14:51:14;;;;;;;2.47;1.20;;;;;;;;;;5083234;28;20200;-84
2022/07/14 14:53:42;;;;;;;11.03;0.80;;;;;;;;;;5070904;28;20203;-82
2022/07/14 14:56:12;;;;;;;0.50;0.50;;;;;;;;;;5067202;28;20232;-82
2022/07/14 14:58:41;;;;;;;1.27;0.90;;;;;;;;;;5069450;28;20212;-83
2022/07/14 15:01:10;;;;;;;1.00;1.00;;;;;;;;;;5086468;28;20269;-84
2022/07/14 15:03:39;;;;;;;3.30;1.43;;;;;;;;;;5084023;28;20208;-83
2022/07/14 15:06:17;;;;;;;0.77;0.77;;;;;;;;;;5080834;28;20215;-82
2022/07/14 15:08:46;;;;;;;3.67;0.77;;;;;;;;;;5064140;28;20218;-82
2022/07/14 15:11:15;;;;;;;3.33;1.07;;;;;;;;;;5081370;28;20253;-83
2022/07/14 15:13:44;;;;;;;0.70;0.70;;;;;;;;;;5084244;28;20230;-84
2022/07/14 15:16:12;;;;;;;5.70;1.40;;;;;;;;;;5087098;28;20204;-84
2022/07/14 15:18:42;;;;;;;0.80;0.80;;;;;;;;;;5062518;28;20260;-83